Terminal Aerodrome Forecast
Issued by NWS

Home | Current Version | Previous Version | Text Only | Print | Product List | Glossary On
Versions: 1 2 3 4 5 6 7 8 9 10 11 12 13 14 15 16 17 18 19 20 21 22 23 24 25 26 27
000
FTUS43 KICT 210305 AAB
TAFSLN
TAF AMD
KSLN 210305Z 2103/2124 17008KT P6SM SCT020 BKN200
     FM210600 17008KT 4SM BR OVC020
     FM211000 17008KT 2SM BR OVC008
     FM211500 17012KT 5SM BR BKN009=

USA.gov is the U.S. government's official web portal to all federal, state and local government web resources and services.